sensor_id;sensor_type;location;lat;lon;timestamp;temperature;humidity
27314;DHT22;14800;48.174;9.798;2023-10-09T00:02:11;15.50;78.30
27314;DHT22;14800;48.174;9.798;2023-10-09T00:04:37;15.50;78.50
27314;DHT22;14800;48.174;9.798;2023-10-09T00:07:06;15.50;78.50
27314;DHT22;14800;48.174;9.798;2023-10-09T00:09:36;15.40;78.50
27314;DHT22;14800;48.174;9.798;2023-10-09T00:12:20;15.40;78.40
27314;DHT22;14800;48.174;9.798;2023-10-09T00:14:51;15.40;78.60
27314;DHT22;14800;48.174;9.798;2023-10-09T00:17:21;15.40;78.80
27314;DHT22;14800;48.174;9.798;2023-10-09T00:19:49;15.30;78.70
27314;DHT22;14800;48.174;9.798;2023-10-09T00:22:17;15.30;78.90
27314;DHT22;14800;48.174;9.798;2023-10-09T00:24:52;15.30;78.90
27314;DHT22;14800;48.174;9.798;2023-10-09T00:27:42;15.20;78.90
27314;DHT22;14800;48.174;9.798;2023-10-09T00:30:12;15.20;78.70
27314;DHT22;14800;48.174;9.798;2023-10-09T00:32:47;15.20;78.90
27314;DHT22;14800;48.174;9.798;2023-10-09T00:35:27;15.20;78.90
27314;DHT22;14800;48.174;9.798;2023-10-09T00:38:06;15.20;78.90
27314;DHT22;14800;48.174;9.798;2023-10-09T00:40:41;15.20;79.10
27314;DHT22;14800;48.174;9.798;2023-10-09T00:43:13;15.10;79.00
27314;DHT22;14800;48.174;9.798;2023-10-09T00:45:40;15.10;79.10
27314;DHT22;14800;48.174;9.798;2023-10-09T00:48:08;15.10;79.20
27314;DHT22;14800;48.174;9.798;2023-10-09T00:50:35;15.10;79.30
27314;DHT22;14800;48.174;9.798;2023-10-09T00:53:02;15.00;79.30
27314;DHT22;14800;48.174;9.798;2023-10-09T00:55:34;15.00;79.20
27314;DHT22;14800;48.174;9.798;2023-10-09T00:58:21;15.00;79.10
27314;DHT22;14800;48.174;9.798;2023-10-09T01:00:50;15.00;79.10
27314;DHT22;14800;48.174;9.798;2023-10-09T01:03:19;15.00;79.10
27314;DHT22;14800;48.174;9.798;2023-10-09T01:05:57;14.90;79.20
27314;DHT22;14800;48.174;9.798;2023-10-09T01:08:41;14.90;79.50
27314;DHT22;14800;48.174;9.798;2023-10-09T01:11:16;14.80;79.50
27314;DHT22;14800;48.174;9.798;2023-10-09T01:13:49;14.80;80.40
27314;DHT22;14800;48.174;9.798;2023-10-09T01:16:17;14.70;80.30
27314;DHT22;14800;48.174;9.798;2023-10-09T01:18:46;14.70;80.90
27314;DHT22;14800;48.174;9.798;2023-10-09T01:21:18;14.70;81.00
27314;DHT22;14800;48.174;9.798;2023-10-09T01:23:48;14.70;81.10
27314;DHT22;14800;48.174;9.798;2023-10-09T01:26:37;14.60;81.10
27314;DHT22;14800;48.174;9.798;2023-10-09T01:29:17;14.60;81.20
27314;DHT22;14800;48.174;9.798;2023-10-09T01:31:56;14.70;82.40
27314;DHT22;14800;48.174;9.798;2023-10-09T01:34:27;14.70;81.70
27314;DHT22;14800;48.174;9.798;2023-10-09T01:37:06;14.70;82.00
27314;DHT22;14800;48.174;9.798;2023-10-09T01:39:39;14.70;81.70
27314;DHT22;14800;48.174;9.798;2023-10-09T01:42:08;14.70;81.90
27314;DHT22;14800;48.174;9.798;2023-10-09T01:44:35;14.70;82.20
27314;DHT22;14800;48.174;9.798;2023-10-09T01:47:05;14.70;82.50
27314;DHT22;14800;48.174;9.798;2023-10-09T01:49:36;14.70;82.70
27314;DHT22;14800;48.174;9.798;2023-10-09T01:52:07;14.70;82.90
27314;DHT22;14800;48.174;9.798;2023-10-09T01:54:38;14.70;82.70
27314;DHT22;14800;48.174;9.798;2023-10-09T01:57:08;14.70;83.10
27314;DHT22;14800;48.174;9.798;2023-10-09T01:59:41;14.70;83.10
27314;DHT22;14800;48.174;9.798;2023-10-09T02:02:11;14.70;82.90
27314;DHT22;14800;48.174;9.798;2023-10-09T02:05:06;14.70;83.00
27314;DHT22;14800;48.174;9.798;2023-10-09T02:07:32;14.70;83.90
27314;DHT22;14800;48.174;9.798;2023-10-09T02:10:07;14.70;82.90
27314;DHT22;14800;48.174;9.798;2023-10-09T02:12:50;14.70;83.10
27314;DHT22;14800;48.174;9.798;2023-10-09T02:15:19;14.60;83.10
27314;DHT22;14800;48.174;9.798;2023-10-09T02:18:05;14.60;83.30
27314;DHT22;14800;48.174;9.798;2023-10-09T02:20:45;14.60;83.20
27314;DHT22;14800;48.174;9.798;2023-10-09T02:23:12;14.60;83.20
27314;DHT22;14800;48.174;9.798;2023-10-09T02:25:42;14.60;83.30
27314;DHT22;14800;48.174;9.798;2023-10-09T02:28:11;14.60;83.50
27314;DHT22;14800;48.174;9.798;2023-10-09T02:30:45;14.70;83.70
27314;DHT22;14800;48.174;9.798;2023-10-09T02:33:17;14.70;83.70
27314;DHT22;14800;48.174;9.798;2023-10-09T02:35:56;14.70;83.90
27314;DHT22;14800;48.174;9.798;2023-10-09T02:38:25;14.80;84.00
27314;DHT22;14800;48.174;9.798;2023-10-09T02:40:52;14.80;84.00
27314;DHT22;14800;48.174;9.798;2023-10-09T02:43:34;14.80;84.20
27314;DHT22;14800;48.174;9.798;2023-10-09T02:46:10;14.90;84.50
27314;DHT22;14800;48.174;9.798;2023-10-09T02:48:56;14.90;84.10
27314;DHT22;14800;48.174;9.798;2023-10-09T02:51:30;15.00;84.00
27314;DHT22;14800;48.174;9.798;2023-10-09T02:54:03;15.00;83.80
27314;DHT22;14800;48.174;9.798;2023-10-09T02:56:52;15.00;83.80
27314;DHT22;14800;48.174;9.798;2023-10-09T02:59:31;15.00;83.80
27314;DHT22;14800;48.174;9.798;2023-10-09T03:01:57;15.00;83.80
27314;DHT22;14800;48.174;9.798;2023-10-09T03:04:25;15.00;84.00
27314;DHT22;14800;48.174;9.798;2023-10-09T03:06:57;15.00;83.90
27314;DHT22;14800;48.174;9.798;2023-10-09T03:09:23;15.00;83.80
27314;DHT22;14800;48.174;9.798;2023-10-09T03:12:02;15.00;84.70
27314;DHT22;14800;48.174;9.798;2023-10-09T03:14:34;15.00;83.80
27314;DHT22;14800;48.174;9.798;2023-10-09T03:17:09;15.00;83.60
27314;DHT22;14800;48.174;9.798;2023-10-09T03:19:37;15.00;83.30
27314;DHT22;14800;48.174;9.798;2023-10-09T03:22:07;15.00;83.30
27314;DHT22;14800;48.174;9.798;2023-10-09T03:24:37;15.00;83.30
27314;DHT22;14800;48.174;9.798;2023-10-09T03:27:03;15.00;83.30
27314;DHT22;14800;48.174;9.798;2023-10-09T03:29:29;14.90;83.30
27314;DHT22;14800;48.174;9.798;2023-10-09T03:31:55;14.90;83.40
27314;DHT22;14800;48.174;9.798;2023-10-09T03:34:25;14.90;83.60
27314;DHT22;14800;48.174;9.798;2023-10-09T03:36:51;14.90;83.80
27314;DHT22;14800;48.174;9.798;2023-10-09T03:39:32;14.90;84.00
27314;DHT22;14800;48.174;9.798;2023-10-09T03:42:05;14.90;84.00
27314;DHT22;14800;48.174;9.798;2023-10-09T03:44:37;14.80;84.00
27314;DHT22;14800;48.174;9.798;2023-10-09T03:47:07;14.80;84.10
27314;DHT22;14800;48.174;9.798;2023-10-09T03:49:35;14.80;84.30
27314;DHT22;14800;48.174;9.798;2023-10-09T03:52:05;14.90;84.50
27314;DHT22;14800;48.174;9.798;2023-10-09T03:54:32;14.90;84.50
27314;DHT22;14800;48.174;9.798;2023-10-09T03:57:01;14.90;84.50
27314;DHT22;14800;48.174;9.798;2023-10-09T03:59:27;14.90;84.80
27314;DHT22;14800;48.174;9.798;2023-10-09T04:01:56;14.90;84.80
27314;DHT22;14800;48.174;9.798;2023-10-09T04:04:23;14.90;84.80
27314;DHT22;14800;48.174;9.798;2023-10-09T04:06:49;14.90;84.60
27314;DHT22;14800;48.174;9.798;2023-10-09T04:09:17;14.90;84.60
27314;DHT22;14800;48.174;9.798;2023-10-09T04:11:52;15.00;84.60
27314;DHT22;14800;48.174;9.798;2023-10-09T04:14:40;15.00;84.50
27314;DHT22;14800;48.174;9.798;2023-10-09T04:17:27;15.00;84.40
27314;DHT22;14800;48.174;9.798;2023-10-09T04:19:59;15.00;84.10
27314;DHT22;14800;48.174;9.798;2023-10-09T04:22:43;15.00;84.40
27314;DHT22;14800;48.174;9.798;2023-10-09T04:25:21;15.10;84.40
27314;DHT22;14800;48.174;9.798;2023-10-09T04:28:07;15.10;84.80
27314;DHT22;14800;48.174;9.798;2023-10-09T04:30:45;15.20;84.50
27314;DHT22;14800;48.174;9.798;2023-10-09T04:33:19;15.20;84.50
27314;DHT22;14800;48.174;9.798;2023-10-09T04:36:04;15.20;84.50
27314;DHT22;14800;48.174;9.798;2023-10-09T04:38:52;15.30;84.80
27314;DHT22;14800;48.174;9.798;2023-10-09T04:41:23;15.40;84.80
27314;DHT22;14800;48.174;9.798;2023-10-09T04:43:58;15.40;84.80
27314;DHT22;14800;48.174;9.798;2023-10-09T04:46:43;15.40;84.60
27314;DHT22;14800;48.174;9.798;2023-10-09T04:49:12;15.50;84.50
27314;DHT22;14800;48.174;9.798;2023-10-09T04:51:53;15.50;84.60
27314;DHT22;14800;48.174;9.798;2023-10-09T04:54:34;15.60;84.40
27314;DHT22;14800;48.174;9.798;2023-10-09T04:57:26;15.60;84.30
27314;DHT22;14800;48.174;9.798;2023-10-09T04:59:51;15.70;84.30
27314;DHT22;14800;48.174;9.798;2023-10-09T05:02:17;15.70;84.10
27314;DHT22;14800;48.174;9.798;2023-10-09T05:04:46;15.80;84.00
27314;DHT22;14800;48.174;9.798;2023-10-09T05:07:16;15.80;83.90
27314;DHT22;14800;48.174;9.798;2023-10-09T05:09:49;15.90;83.80
27314;DHT22;14800;48.174;9.798;2023-10-09T05:12:22;15.90;83.70
27314;DHT22;14800;48.174;9.798;2023-10-09T05:14:52;15.90;83.50
27314;DHT22;14800;48.174;9.798;2023-10-09T05:17:38;16.00;83.40
27314;DHT22;14800;48.174;9.798;2023-10-09T05:20:06;16.00;83.20
27314;DHT22;14800;48.174;9.798;2023-10-09T05:22:50;16.00;83.10
27314;DHT22;14800;48.174;9.798;2023-10-09T05:25:35;16.10;82.90
27314;DHT22;14800;48.174;9.798;2023-10-09T05:28:20;16.10;82.70
27314;DHT22;14800;48.174;9.798;2023-10-09T05:30:51;16.10;82.40
27314;DHT22;14800;48.174;9.798;2023-10-09T05:33:28;16.10;82.30
27314;DHT22;14800;48.174;9.798;2023-10-09T05:35:54;16.20;82.20
27314;DHT22;14800;48.174;9.798;2023-10-09T05:38:38;16.20;82.00
27314;DHT22;14800;48.174;9.798;2023-10-09T05:41:12;16.20;81.90
27314;DHT22;14800;48.174;9.798;2023-10-09T05:43:56;16.20;81.90
27314;DHT22;14800;48.174;9.798;2023-10-09T05:46:40;16.20;81.70
27314;DHT22;14800;48.174;9.798;2023-10-09T05:49:26;16.20;81.60
27314;DHT22;14800;48.174;9.798;2023-10-09T05:52:14;16.20;81.50
27314;DHT22;14800;48.174;9.798;2023-10-09T05:55:08;16.20;81.40
27314;DHT22;14800;48.174;9.798;2023-10-09T05:57:46;16.20;81.50
27314;DHT22;14800;48.174;9.798;2023-10-09T06:00:20;16.20;81.50
27314;DHT22;14800;48.174;9.798;2023-10-09T06:03:05;16.20;81.50
27314;DHT22;14800;48.174;9.798;2023-10-09T06:05:50;16.20;81.50
27314;DHT22;14800;48.174;9.798;2023-10-09T06:08:29;16.20;81.90
27314;DHT22;14800;48.174;9.798;2023-10-09T06:11:11;16.20;81.90
27314;DHT22;14800;48.174;9.798;2023-10-09T06:13:57;16.20;81.90
27314;DHT22;14800;48.174;9.798;2023-10-09T06:16:29;16.20;81.90
27314;DHT22;14800;48.174;9.798;2023-10-09T06:19:14;16.20;82.00
27314;DHT22;14800;48.174;9.798;2023-10-09T06:21:46;16.20;82.40
27314;DHT22;14800;48.174;9.798;2023-10-09T06:24:21;16.20;82.30
27314;DHT22;14800;48.174;9.798;2023-10-09T06:26:59;16.20;82.30
27314;DHT22;14800;48.174;9.798;2023-10-09T06:29:31;16.20;82.40
27314;DHT22;14800;48.174;9.798;2023-10-09T06:32:07;16.30;82.70
27314;DHT22;14800;48.174;9.798;2023-10-09T06:34:54;16.30;82.70
27314;DHT22;14800;48.174;9.798;2023-10-09T06:37:40;16.30;82.60
27314;DHT22;14800;48.174;9.798;2023-10-09T06:40:26;16.30;82.60
27314;DHT22;14800;48.174;9.798;2023-10-09T06:43:04;16.40;82.60
27314;DHT22;14800;48.174;9.798;2023-10-09T06:45:40;16.40;82.80
27314;DHT22;14800;48.174;9.798;2023-10-09T06:48:23;16.50;82.90
27314;DHT22;14800;48.174;9.798;2023-10-09T06:51:09;16.50;83.70
27314;DHT22;14800;48.174;9.798;2023-10-09T06:53:54;16.60;82.90
27314;DHT22;14800;48.174;9.798;2023-10-09T06:56:27;16.60;82.70
27314;DHT22;14800;48.174;9.798;2023-10-09T06:58:59;16.70;82.80
27314;DHT22;14800;48.174;9.798;2023-10-09T07:01:29;16.70;82.70
27314;DHT22;14800;48.174;9.798;2023-10-09T07:04:08;16.80;82.80
27314;DHT22;14800;48.174;9.798;2023-10-09T07:07:06;16.90;82.70
27314;DHT22;14800;48.174;9.798;2023-10-09T07:09:38;17.00;82.60
27314;DHT22;14800;48.174;9.798;2023-10-09T07:12:22;17.00;82.60
27314;DHT22;14800;48.174;9.798;2023-10-09T07:14:52;17.10;82.70
27314;DHT22;14800;48.174;9.798;2023-10-09T07:17:18;17.20;82.70
27314;DHT22;14800;48.174;9.798;2023-10-09T07:19:59;17.20;82.80
27314;DHT22;14800;48.174;9.798;2023-10-09T07:22:39;17.30;82.90
27314;DHT22;14800;48.174;9.798;2023-10-09T07:25:18;17.30;82.90
27314;DHT22;14800;48.174;9.798;2023-10-09T07:28:06;17.40;82.60
27314;DHT22;14800;48.174;9.798;2023-10-09T07:30:54;17.50;82.30
27314;DHT22;14800;48.174;9.798;2023-10-09T07:33:23;17.50;81.90
27314;DHT22;14800;48.174;9.798;2023-10-09T07:35:56;17.60;81.90
27314;DHT22;14800;48.174;9.798;2023-10-09T07:38:25;17.70;81.80
27314;DHT22;14800;48.174;9.798;2023-10-09T07:41:01;17.70;81.80
27314;DHT22;14800;48.174;9.798;2023-10-09T07:43:28;17.80;81.60
27314;DHT22;14800;48.174;9.798;2023-10-09T07:46:02;17.90;81.30
27314;DHT22;14800;48.174;9.798;2023-10-09T07:48:27;17.80;81.00
27314;DHT22;14800;48.174;9.798;2023-10-09T07:51:11;17.90;81.10
27314;DHT22;14800;48.174;9.798;2023-10-09T07:53:36;18.00;80.80
27314;DHT22;14800;48.174;9.798;2023-10-09T07:56:09;18.00;80.70
27314;DHT22;14800;48.174;9.798;2023-10-09T07:58:34;18.00;80.50
27314;DHT22;14800;48.174;9.798;2023-10-09T08:01:12;18.10;80.50
27314;DHT22;14800;48.174;9.798;2023-10-09T08:03:46;18.10;80.60
27314;DHT22;14800;48.174;9.798;2023-10-09T08:06:13;18.10;80.80
27314;DHT22;14800;48.174;9.798;2023-10-09T08:08:57;18.20;80.80
27314;DHT22;14800;48.174;9.798;2023-10-09T08:11:31;18.30;80.70
27314;DHT22;14800;48.174;9.798;2023-10-09T08:14:09;18.30;80.50
27314;DHT22;14800;48.174;9.798;2023-10-09T08:16:55;18.30;80.30
27314;DHT22;14800;48.174;9.798;2023-10-09T08:19:49;18.40;80.30
27314;DHT22;14800;48.174;9.798;2023-10-09T08:22:30;18.50;80.30
27314;DHT22;14800;48.174;9.798;2023-10-09T08:25:16;18.50;80.20
27314;DHT22;14800;48.174;9.798;2023-10-09T08:28:02;18.50;80.00
27314;DHT22;14800;48.174;9.798;2023-10-09T08:30:54;18.60;79.80
27314;DHT22;14800;48.174;9.798;2023-10-09T08:33:20;18.60;79.60
27314;DHT22;14800;48.174;9.798;2023-10-09T08:35:55;18.60;79.30
27314;DHT22;14800;48.174;9.798;2023-10-09T08:38:27;18.70;79.20
27314;DHT22;14800;48.174;9.798;2023-10-09T08:41:10;18.70;80.00
27314;DHT22;14800;48.174;9.798;2023-10-09T08:43:53;18.80;78.80
27314;DHT22;14800;48.174;9.798;2023-10-09T08:46:28;18.80;78.60
27314;DHT22;14800;48.174;9.798;2023-10-09T08:48:58;18.80;78.40
27314;DHT22;14800;48.174;9.798;2023-10-09T08:51:25;18.90;78.70
27314;DHT22;14800;48.174;9.798;2023-10-09T08:53:52;19.00;78.60
27314;DHT22;14800;48.174;9.798;2023-10-09T08:56:19;19.00;78.50
27314;DHT22;14800;48.174;9.798;2023-10-09T08:58:52;19.10;78.40
27314;DHT22;14800;48.174;9.798;2023-10-09T09:01:18;19.10;78.00
27314;DHT22;14800;48.174;9.798;2023-10-09T09:03:48;19.20;78.00
27314;DHT22;14800;48.174;9.798;2023-10-09T09:06:16;19.30;78.00
27314;DHT22;14800;48.174;9.798;2023-10-09T09:08:45;19.30;77.90
27314;DHT22;14800;48.174;9.798;2023-10-09T09:11:15;19.40;77.70
27314;DHT22;14800;48.174;9.798;2023-10-09T09:14:03;19.40;77.20
27314;DHT22;14800;48.174;9.798;2023-10-09T09:16:40;19.50;76.60
27314;DHT22;14800;48.174;9.798;2023-10-09T09:19:09;19.50;76.70
27314;DHT22;14800;48.174;9.798;2023-10-09T09:21:51;19.50;76.60
27314;DHT22;14800;48.174;9.798;2023-10-09T09:24:21;19.60;76.50
27314;DHT22;14800;48.174;9.798;2023-10-09T09:26:57;19.60;76.80
27314;DHT22;14800;48.174;9.798;2023-10-09T09:29:45;19.60;76.50
27314;DHT22;14800;48.174;9.798;2023-10-09T09:32:27;19.70;76.00
27314;DHT22;14800;48.174;9.798;2023-10-09T09:35:01;19.80;76.60
27314;DHT22;14800;48.174;9.798;2023-10-09T09:37:30;19.90;76.30
27314;DHT22;14800;48.174;9.798;2023-10-09T09:40:00;19.90;76.20
27314;DHT22;14800;48.174;9.798;2023-10-09T09:42:30;20.00;76.00
27314;DHT22;14800;48.174;9.798;2023-10-09T09:45:01;20.00;75.70
27314;DHT22;14800;48.174;9.798;2023-10-09T09:47:27;20.10;75.30
27314;DHT22;14800;48.174;9.798;2023-10-09T09:49:57;20.20;75.30
27314;DHT22;14800;48.174;9.798;2023-10-09T09:52:28;20.20;74.60
27314;DHT22;14800;48.174;9.798;2023-10-09T09:54:54;20.30;74.60
27314;DHT22;14800;48.174;9.798;2023-10-09T09:57:23;20.30;74.30
27314;DHT22;14800;48.174;9.798;2023-10-09T09:59:52;20.40;74.20
27314;DHT22;14800;48.174;9.798;2023-10-09T10:02:46;20.50;74.00
27314;DHT22;14800;48.174;9.798;2023-10-09T10:05:13;20.50;73.30
27314;DHT22;14800;48.174;9.798;2023-10-09T10:07:41;20.60;73.60
27314;DHT22;14800;48.174;9.798;2023-10-09T10:10:40;20.60;73.10
27314;DHT22;14800;48.174;9.798;2023-10-09T10:16:13;20.80;72.10
27314;DHT22;14800;48.174;9.798;2023-10-09T10:19:08;20.80;72.20
27314;DHT22;14800;48.174;9.798;2023-10-09T10:21:37;20.90;72.00
27314;DHT22;14800;48.174;9.798;2023-10-09T10:35:17;21.10;71.80
27314;DHT22;14800;48.174;9.798;2023-10-09T10:37:46;21.10;72.20
27314;DHT22;14800;48.174;9.798;2023-10-09T10:40:27;21.10;72.10
27314;DHT22;14800;48.174;9.798;2023-10-09T10:43:18;21.10;72.10
27314;DHT22;14800;48.174;9.798;2023-10-09T10:46:13;21.20;71.90
27314;DHT22;14800;48.174;9.798;2023-10-09T10:48:43;21.30;72.10
27314;DHT22;14800;48.174;9.798;2023-10-09T10:51:13;21.30;72.30
27314;DHT22;14800;48.174;9.798;2023-10-09T10:53:51;21.40;72.20
27314;DHT22;14800;48.174;9.798;2023-10-09T10:56:23;21.40;72.30
27314;DHT22;14800;48.174;9.798;2023-10-09T10:59:00;21.50;72.10
27314;DHT22;14800;48.174;9.798;2023-10-09T11:01:33;21.50;72.00
27314;DHT22;14800;48.174;9.798;2023-10-09T11:04:22;21.60;71.90
27314;DHT22;14800;48.174;9.798;2023-10-09T11:07:11;21.70;72.10
27314;DHT22;14800;48.174;9.798;2023-10-09T11:09:57;21.80;72.10
27314;DHT22;14800;48.174;9.798;2023-10-09T11:15:09;21.90;71.30
27314;DHT22;14800;48.174;9.798;2023-10-09T11:18:01;22.00;71.40
27314;DHT22;14800;48.174;9.798;2023-10-09T11:20:34;22.10;71.30
27314;DHT22;14800;48.174;9.798;2023-10-09T11:23:00;22.20;71.40
27314;DHT22;14800;48.174;9.798;2023-10-09T11:25:46;22.20;71.00
27314;DHT22;14800;48.174;9.798;2023-10-09T11:28:22;22.30;70.20
27314;DHT22;14800;48.174;9.798;2023-10-09T11:31:11;22.30;70.10
27314;DHT22;14800;48.174;9.798;2023-10-09T11:33:50;22.40;70.10
27314;DHT22;14800;48.174;9.798;2023-10-09T11:36:21;22.40;69.30
27314;DHT22;14800;48.174;9.798;2023-10-09T11:38:57;22.50;69.90
27314;DHT22;14800;48.174;9.798;2023-10-09T11:41:46;22.50;69.80
27314;DHT22;14800;48.174;9.798;2023-10-09T11:44:15;22.50;69.60
27314;DHT22;14800;48.174;9.798;2023-10-09T11:46:59;22.50;69.50
27314;DHT22;14800;48.174;9.798;2023-10-09T11:52:23;22.70;69.90
27314;DHT22;14800;48.174;9.798;2023-10-09T11:55:02;22.70;69.60
27314;DHT22;14800;48.174;9.798;2023-10-09T11:57:28;22.70;69.10
27314;DHT22;14800;48.174;9.798;2023-10-09T12:00:01;22.70;68.90
27314;DHT22;14800;48.174;9.798;2023-10-09T12:02:29;22.70;68.70
27314;DHT22;14800;48.174;9.798;2023-10-09T12:04:56;22.70;68.60
27314;DHT22;14800;48.174;9.798;2023-10-09T12:07:23;22.70;68.90
27314;DHT22;14800;48.174;9.798;2023-10-09T12:09:50;22.80;68.80
27314;DHT22;14800;48.174;9.798;2023-10-09T12:12:21;22.80;68.80
27314;DHT22;14800;48.174;9.798;2023-10-09T12:14:51;22.80;68.70
27314;DHT22;14800;48.174;9.798;2023-10-09T12:17:18;22.80;69.50
27314;DHT22;14800;48.174;9.798;2023-10-09T12:19:44;22.80;68.90
27314;DHT22;14800;48.174;9.798;2023-10-09T12:22:09;22.80;68.80
27314;DHT22;14800;48.174;9.798;2023-10-09T12:24:36;22.80;68.90
27314;DHT22;14800;48.174;9.798;2023-10-09T12:27:03;22.80;68.80
27314;DHT22;14800;48.174;9.798;2023-10-09T12:29:35;22.90;68.90
27314;DHT22;14800;48.174;9.798;2023-10-09T12:32:00;22.90;68.70
27314;DHT22;14800;48.174;9.798;2023-10-09T12:34:28;23.00;68.80
27314;DHT22;14800;48.174;9.798;2023-10-09T12:36:54;23.00;68.50
27314;DHT22;14800;48.174;9.798;2023-10-09T12:39:21;23.10;68.30
27314;DHT22;14800;48.174;9.798;2023-10-09T12:41:50;23.20;68.30
27314;DHT22;14800;48.174;9.798;2023-10-09T12:44:19;23.20;68.30
27314;DHT22;14800;48.174;9.798;2023-10-09T12:46:48;23.30;68.30
27314;DHT22;14800;48.174;9.798;2023-10-09T12:49:20;23.30;68.10
27314;DHT22;14800;48.174;9.798;2023-10-09T12:51:53;23.30;67.90
27314;DHT22;14800;48.174;9.798;2023-10-09T12:54:18;23.30;67.90
27314;DHT22;14800;48.174;9.798;2023-10-09T12:56:45;23.30;67.80
27314;DHT22;14800;48.174;9.798;2023-10-09T12:59:14;23.30;67.80
27314;DHT22;14800;48.174;9.798;2023-10-09T13:01:40;23.30;67.70
27314;DHT22;14800;48.174;9.798;2023-10-09T13:04:15;23.30;67.90
27314;DHT22;14800;48.174;9.798;2023-10-09T13:06:46;23.20;67.70
27314;DHT22;14800;48.174;9.798;2023-10-09T13:09:13;23.20;68.10
27314;DHT22;14800;48.174;9.798;2023-10-09T13:11:40;23.20;68.10
27314;DHT22;14800;48.174;9.798;2023-10-09T13:14:06;23.30;68.30
27314;DHT22;14800;48.174;9.798;2023-10-09T13:16:48;23.20;68.10
27314;DHT22;14800;48.174;9.798;2023-10-09T13:19:16;23.20;68.10
27314;DHT22;14800;48.174;9.798;2023-10-09T13:21:43;23.20;68.30
27314;DHT22;14800;48.174;9.798;2023-10-09T13:24:09;23.20;68.50
27314;DHT22;14800;48.174;9.798;2023-10-09T13:26:49;23.10;68.80
27314;DHT22;14800;48.174;9.798;2023-10-09T13:29:17;23.10;69.10
27314;DHT22;14800;48.174;9.798;2023-10-09T13:31:48;23.00;69.20
27314;DHT22;14800;48.174;9.798;2023-10-09T13:34:14;23.00;69.20
27314;DHT22;14800;48.174;9.798;2023-10-09T13:36:43;22.90;69.20
27314;DHT22;14800;48.174;9.798;2023-10-09T13:39:18;22.90;69.30
27314;DHT22;14800;48.174;9.798;2023-10-09T13:41:51;22.90;69.50
27314;DHT22;14800;48.174;9.798;2023-10-09T13:44:37;22.80;69.50
27314;DHT22;14800;48.174;9.798;2023-10-09T13:47:07;22.80;69.70
27314;DHT22;14800;48.174;9.798;2023-10-09T13:49:36;22.80;70.00
27314;DHT22;14800;48.174;9.798;2023-10-09T13:52:05;22.80;69.90
27314;DHT22;14800;48.174;9.798;2023-10-09T13:54:33;22.80;69.80
27314;DHT22;14800;48.174;9.798;2023-10-09T13:56:59;22.80;69.40
27314;DHT22;14800;48.174;9.798;2023-10-09T13:59:25;22.80;69.20
27314;DHT22;14800;48.174;9.798;2023-10-09T14:01:54;22.80;69.00
27314;DHT22;14800;48.174;9.798;2023-10-09T14:04:21;22.80;68.70
27314;DHT22;14800;48.174;9.798;2023-10-09T14:06:49;22.80;68.80
27314;DHT22;14800;48.174;9.798;2023-10-09T14:09:17;22.80;68.90
27314;DHT22;14800;48.174;9.798;2023-10-09T14:12:03;22.80;68.70
27314;DHT22;14800;48.174;9.798;2023-10-09T14:14:45;22.80;68.50
27314;DHT22;14800;48.174;9.798;2023-10-09T14:19:44;22.80;68.40
27314;DHT22;14800;48.174;9.798;2023-10-09T14:22:14;22.80;68.30
27314;DHT22;14800;48.174;9.798;2023-10-09T14:24:45;22.80;68.10
27314;DHT22;14800;48.174;9.798;2023-10-09T14:27:17;22.80;68.00
27314;DHT22;14800;48.174;9.798;2023-10-09T14:29:45;22.80;68.00
27314;DHT22;14800;48.174;9.798;2023-10-09T14:32:11;22.90;68.00
27314;DHT22;14800;48.174;9.798;2023-10-09T14:34:43;22.90;68.00
27314;DHT22;14800;48.174;9.798;2023-10-09T14:37:15;22.90;67.70
27314;DHT22;14800;48.174;9.798;2023-10-09T14:39:41;22.90;67.50
27314;DHT22;14800;48.174;9.798;2023-10-09T14:42:07;22.90;67.40
27314;DHT22;14800;48.174;9.798;2023-10-09T14:44:36;22.90;67.40
27314;DHT22;14800;48.174;9.798;2023-10-09T14:47:09;22.80;67.10
27314;DHT22;14800;48.174;9.798;2023-10-09T14:49:34;22.80;66.70
27314;DHT22;14800;48.174;9.798;2023-10-09T14:52:12;22.80;66.90
27314;DHT22;14800;48.174;9.798;2023-10-09T14:54:42;22.80;67.00
27314;DHT22;14800;48.174;9.798;2023-10-09T14:57:08;22.80;67.00
27314;DHT22;14800;48.174;9.798;2023-10-09T14:59:37;22.80;67.00
27314;DHT22;14800;48.174;9.798;2023-10-09T15:02:03;22.80;67.20
27314;DHT22;14800;48.174;9.798;2023-10-09T15:04:31;22.80;67.40
27314;DHT22;14800;48.174;9.798;2023-10-09T15:06:57;22.80;67.40
27314;DHT22;14800;48.174;9.798;2023-10-09T15:09:22;22.80;67.40
27314;DHT22;14800;48.174;9.798;2023-10-09T15:11:49;22.80;67.50
27314;DHT22;14800;48.174;9.798;2023-10-09T15:14:16;22.80;67.30
27314;DHT22;14800;48.174;9.798;2023-10-09T15:16:44;22.80;67.30
27314;DHT22;14800;48.174;9.798;2023-10-09T15:19:09;22.80;67.50
27314;DHT22;14800;48.174;9.798;2023-10-09T15:21:39;22.80;67.60
27314;DHT22;14800;48.174;9.798;2023-10-09T15:24:12;22.80;67.70
27314;DHT22;14800;48.174;9.798;2023-10-09T15:26:41;22.80;67.60
27314;DHT22;14800;48.174;9.798;2023-10-09T15:29:07;22.80;67.60
27314;DHT22;14800;48.174;9.798;2023-10-09T15:31:35;22.80;67.40
27314;DHT22;14800;48.174;9.798;2023-10-09T15:34:01;22.70;67.20
27314;DHT22;14800;48.174;9.798;2023-10-09T15:36:27;22.80;67.40
27314;DHT22;14800;48.174;9.798;2023-10-09T15:38:56;22.70;67.00
27314;DHT22;14800;48.174;9.798;2023-10-09T15:41:28;22.70;67.10
27314;DHT22;14800;48.174;9.798;2023-10-09T15:43:58;22.70;66.70
27314;DHT22;14800;48.174;9.798;2023-10-09T15:46:24;22.70;66.70
27314;DHT22;14800;48.174;9.798;2023-10-09T15:48:51;22.70;66.60
27314;DHT22;14800;48.174;9.798;2023-10-09T15:51:18;22.70;66.70
27314;DHT22;14800;48.174;9.798;2023-10-09T15:53:44;22.60;66.70
27314;DHT22;14800;48.174;9.798;2023-10-09T15:56:11;22.60;66.70
27314;DHT22;14800;48.174;9.798;2023-10-09T15:58:43;22.60;66.90
27314;DHT22;14800;48.174;9.798;2023-10-09T16:01:13;22.60;67.10
27314;DHT22;14800;48.174;9.798;2023-10-09T16:03:43;22.60;67.20
27314;DHT22;14800;48.174;9.798;2023-10-09T16:06:11;22.60;67.10
27314;DHT22;14800;48.174;9.798;2023-10-09T16:08:41;22.60;66.90
27314;DHT22;14800;48.174;9.798;2023-10-09T16:11:08;22.50;66.80
27314;DHT22;14800;48.174;9.798;2023-10-09T16:13:34;22.50;66.70
27314;DHT22;14800;48.174;9.798;2023-10-09T16:16:00;22.50;66.40
27314;DHT22;14800;48.174;9.798;2023-10-09T16:18:27;22.40;66.60
27314;DHT22;14800;48.174;9.798;2023-10-09T16:20:55;22.40;66.60
27314;DHT22;14800;48.174;9.798;2023-10-09T16:23:21;22.30;66.60
27314;DHT22;14800;48.174;9.798;2023-10-09T16:25:48;22.30;66.50
27314;DHT22;14800;48.174;9.798;2023-10-09T16:28:14;22.30;66.60
27314;DHT22;14800;48.174;9.798;2023-10-09T16:30:41;22.20;66.50
27314;DHT22;14800;48.174;9.798;2023-10-09T16:33:08;22.20;66.50